Flight Track Log - Related Links

Times and Time Zones

All times are in EDT time to prevent confusion due to time zone crossing. See the DAL3759 flight status page for this flight to view local times or setup timezone preferences in your user account.

Time Position Orientation Groundspeed Altitude Reporting Facility
EDT Latitude Longitude Course Direction KTS MPH feet Rate Location/Type
Tue 10:09:36 AM 33.6500 -84.3833 320° Northwest 168 193 2,000  Level Atlanta TRACON
Tue 10:10:36 AM 33.6500 -84.3167 90° East 237 273 3,300 2,050 Climbing Atlanta TRACON
Tue 10:11:36 AM 33.6667 -84.2333 76° East 276 318 6,100 2,850 Climbing Atlanta TRACON
Tue 10:12:00 AM 33.7072 -84.1667 North  Level FlightAware Approximate
Tue 10:12:36 AM 33.7167 -84.1833 40° Northeast 286 329 9,000  Level Atlanta TRACON
Tue 10:13:00 AM 33.7864 -84.1667 North  Level FlightAware Approximate
Tue 10:14:00 AM 33.8583 -84.1916 320° Northwest  Level FlightAware Approximate
Tue 10:14:55 AM 33.8922 -84.2289 348° North 291 335 10,000  Level Atlanta Center
Tue 10:15:55 AM 33.9714 -84.2867 329° Northwest 316 364 11,400 1,750 Climbing Atlanta Center
Tue 10:16:55 AM 34.0631 -84.3247 341° North 336 387 13,500 1,750 Climbing Atlanta Center
Tue 10:17:55 AM 34.1569 -84.3625 342° North 349 402 14,900 750 Climbing Atlanta Center
Tue 10:18:55 AM 34.2528 -84.4033 341° North 356 410 15,000 50 Climbing Atlanta Center
Tue 10:19:55 AM 34.3531 -84.4186 353° North 356 410 15,000  Level Atlanta Center
Tue 10:20:55 AM 34.4575 -84.4067 North 366 421 15,000  Level Atlanta Center
Tue 10:21:55 AM 34.5639 -84.3869 North 371 427 15,000 -50 Level Atlanta Center
Tue 10:22:55 AM 34.6789 -84.3647 North 377 434 14,900 -50 Descending Atlanta Center
Tue 10:23:55 AM 34.7872 -84.3472 North 383 441 14,900  Level Atlanta Center
Tue 10:24:55 AM 34.8917 -84.3250 10° North 383 441 14,900  Level Atlanta Center
Tue 10:25:55 AM 34.9856 -84.3100 North 389 448 14,900 -500 Level Atlanta Center
Tue 10:26:55 AM 35.0922 -84.2875 10° North 384 442 13,900 -1,050 Descending Atlanta Center
Tue 10:27:55 AM 35.1903 -84.2700 North 376 433 12,800 -1,050 Descending Atlanta Center
Tue 10:28:55 AM 35.2861 -84.2525 North 355 409 11,800 -900 Descending Atlanta Center
Tue 10:29:55 AM 35.3739 -84.2350 North 337 388 11,000 -650 Descending Atlanta Center
Tue 10:30:55 AM 35.4572 -84.2197 North 313 360 10,500 -1,350 Descending Atlanta Center
Tue 10:31:55 AM 35.5367 -84.2047 North 298 343 8,300 -2,400 Descending Atlanta Center
Tue 10:32:55 AM 35.6119 -84.1767 17° North 287 330 5,700 -2,150 Descending Atlanta Center
Tue 10:33:55 AM 35.6786 -84.1358 26° Northeast 277 319 4,000 -1,250 Descending Atlanta Center
Tue 10:34:55 AM 35.7286 -84.0925 35° Northeast 243 280 3,200 -1,000 Descending Atlanta Center
Tue 10:35:55 AM 35.7619 -84.0542 43° Northeast 200 230 2,000 -1,000 Descending Atlanta Center
Tue 10:36:55 AM 35.7914 -84.0183 45° Northeast 159 183 1,200 -800 Descending Atlanta Center
Tue 10:38:00 AM 35.8000 -83.9833 22° Northeast  Level FlightAware Approximate

Login

Don't have an account? Register now (free) for customized features, flight alerts, and more!